Terminal Aerodrome Forecast
Issued by NWS

Home | Current Version | Previous Version | Text Only | Print | Product List | Glossary On
Versions: 1 2 3 4 5 6 7 8 9 10 11 12 13 14
000
FTUS45 KFGZ 210500
TAFPRC
TAF
KPRC 210526Z 2106/2206 17007KT P6SM SCT060 BKN100
     FM211500 18010KT P6SM BKN080 BKN120 PROB30 2115/2120 5SM TSRA
      BKN070CB
     FM212000 24011KT P6SM SCT120=

USA.gov is the U.S. government's official web portal to all federal, state and local government web resources and services.